CheckWX is a tool to help pilots better visualize weather data.  It is not intended as a substitute for an official pre-flight weather briefing.

13:46:21 UTC

PAWN METAR
Noatak Airport
Noatak, Alaska, USA
Current

50 mins ago

PAWN 221256Z AUTO 35003KT 10SM OVC043 M04/M06 A2984 RMK AO2 SLP118 T10391056 FZRANO
Observed
Oct-22 @ 12:56 UTC
Wind
  • 350° at 3 KTS
Visibility
10 SM
Flight Rules
VFR
Cloud Levels
  • Overcast at 4,300' AGL
Temperature
-4°C / 25°F
Dewpoint
-6°C / 21°F
Humidity
86%
Altimeter
29.84" Hg
Pressure
1010.52 hPa
Previous

2 hours ago

PAWN 221156Z AUTO 34004KT 10SM OVC043 M04/M05 A2984 RMK AO2 SLP116 T10391050 11033 21067 51010 FZRANO
Observed
Oct-22 @ 11:56 UTC
Wind
  • 340° at 4 KTS
Visibility
10 SM
Flight Rules
VFR
Cloud Levels
  • Overcast at 4,300' AGL
Temperature
-4°C / 25°F
Dewpoint
-5°C / 23°F
Humidity
93%
Altimeter
29.84" Hg
Pressure
1010.52 hPa
Previous

3 hours ago

PAWN 221056Z AUTO 00000KT 10SM OVC043 M03/M06 A2983 RMK AO2 SLP112 T10331056 FZRANO
Observed
Oct-22 @ 10:56 UTC
Visibility
10 SM
Flight Rules
VFR
Cloud Levels
  • Overcast at 4,300' AGL
Temperature
-3°C / 27°F
Dewpoint
-6°C / 21°F
Humidity
80%
Altimeter
29.83" Hg
Pressure
1010.12 hPa